createdAt,value
2018-06-02T00:00:08.678Z,14.27
2018-06-02T00:02:36.965Z,14.17
2018-06-02T00:05:05.273Z,11.07
2018-06-02T00:07:33.530Z,10.90
2018-06-02T00:10:01.825Z,10.90
2018-06-02T00:12:30.111Z,9.53
2018-06-02T00:14:58.386Z,9.50
2018-06-02T00:17:26.594Z,10.73
2018-06-02T00:19:54.878Z,11.37
2018-06-02T00:22:23.162Z,10.97
2018-06-02T00:24:51.386Z,12.60
2018-06-02T00:27:19.625Z,13.43
2018-06-02T00:29:47.822Z,13.60
2018-06-02T00:32:16.065Z,15.20
2018-06-02T00:34:44.294Z,13.17
2018-06-02T00:37:12.601Z,14.70
2018-06-02T00:39:40.894Z,13.27
2018-06-02T00:42:09.158Z,12.77
2018-06-02T00:44:37.354Z,12.30
2018-06-02T00:47:05.653Z,11.07
2018-06-02T00:49:33.931Z,10.97
2018-06-02T00:52:02.123Z,9.80
2018-06-02T00:54:39.318Z,11.00
2018-06-02T00:57:07.602Z,11.47
2018-06-02T00:59:35.786Z,11.40
2018-06-02T01:02:04.086Z,12.13
2018-06-02T01:04:32.366Z,14.60
2018-06-02T01:07:00.661Z,15.67
2018-06-02T01:09:28.955Z,15.83
2018-06-02T01:11:57.231Z,15.50
2018-06-02T01:17:08.162Z,15.77
2018-06-02T01:19:36.432Z,16.23
2018-06-02T01:22:04.622Z,15.40
2018-06-02T01:24:32.923Z,14.83
2018-06-02T01:27:01.198Z,14.93
2018-06-02T01:29:29.386Z,15.43
2018-06-02T01:31:57.685Z,14.50
2018-06-02T01:34:25.962Z,15.90
2018-06-02T01:36:54.149Z,14.60
2018-06-02T01:39:22.350Z,12.57
2018-06-02T01:41:50.630Z,11.60
2018-06-02T01:44:18.908Z,11.20
2018-06-02T01:46:47.117Z,10.03
2018-06-02T01:49:15.382Z,9.83
2018-06-02T01:51:43.574Z,10.37
2018-06-02T01:54:12.318Z,9.47
2018-06-02T01:56:40.566Z,8.83
2018-06-02T01:59:08.857Z,8.97
2018-06-02T02:01:37.057Z,8.93
2018-06-02T02:04:05.542Z,9.07
2018-06-02T02:06:33.810Z,9.67
2018-06-02T02:09:02.024Z,10.20
2018-06-02T02:11:30.319Z,10.60
2018-06-02T02:13:58.582Z,10.10
2018-06-02T02:16:26.777Z,11.70
2018-06-02T02:18:55.122Z,11.80
2018-06-02T02:21:23.352Z,11.47
2018-06-02T02:23:51.554Z,14.80
2018-06-02T02:26:19.814Z,12.97
2018-06-02T02:28:48.015Z,13.20
2018-06-02T02:31:16.305Z,12.50
2018-06-02T02:33:44.594Z,13.33
2018-06-02T02:36:12.801Z,16.23
2018-06-02T02:38:41.086Z,13.87
2018-06-02T02:41:09.354Z,13.13
2018-06-02T02:43:37.637Z,12.33
2018-06-02T02:46:05.848Z,13.50
2018-06-02T02:48:34.134Z,13.50
2018-06-02T02:51:02.758Z,13.73
2018-06-02T02:53:31.012Z,14.50
2018-06-02T02:55:59.287Z,13.93
2018-06-02T02:58:27.475Z,14.43
2018-06-02T03:00:55.666Z,14.93
2018-06-02T03:03:23.949Z,13.97
2018-06-02T03:05:52.238Z,14.90
2018-06-02T03:08:20.443Z,14.47
2018-06-02T03:10:48.714Z,14.07
2018-06-02T03:13:16.900Z,15.17
2018-06-02T03:15:45.113Z,14.77
2018-06-02T03:18:13.378Z,15.67
2018-06-02T03:20:41.666Z,14.37
2018-06-02T03:23:09.990Z,14.50
2018-06-02T03:25:38.242Z,16.00
2018-06-02T03:28:06.457Z,13.00
2018-06-02T03:30:34.747Z,12.50
2018-06-02T03:33:02.998Z,10.20
2018-06-02T03:35:31.196Z,11.43
2018-06-02T03:37:59.401Z,11.30
2018-06-02T03:40:27.666Z,10.97
2018-06-02T03:42:55.860Z,10.70
2018-06-02T03:45:24.153Z,9.90
2018-06-02T03:47:52.459Z,10.00
2018-06-02T03:50:20.737Z,11.33
2018-06-02T03:52:48.929Z,10.53
2018-06-02T03:55:17.194Z,10.80
2018-06-02T03:57:45.388Z,11.13
2018-06-02T04:00:13.766Z,10.37
2018-06-02T04:02:41.963Z,10.47
2018-06-02T04:05:10.258Z,10.43
2018-06-02T04:07:38.603Z,11.10
2018-06-02T04:10:06.838Z,12.30
2018-06-02T04:12:35.122Z,12.60
2018-06-02T04:15:03.420Z,11.13
2018-06-02T04:17:31.691Z,10.60
2018-06-02T04:19:59.881Z,11.60
2018-06-02T04:22:28.081Z,11.97
2018-06-02T04:24:56.358Z,11.00
2018-06-02T04:27:24.541Z,12.50
2018-06-02T04:29:52.830Z,10.57
2018-06-02T04:32:21.022Z,13.30
2018-06-02T04:34:49.334Z,13.77
2018-06-02T04:37:17.737Z,13.30
2018-06-02T04:39:45.990Z,15.10
2018-06-02T04:42:14.270Z,13.13
2018-06-02T04:44:42.478Z,12.80
2018-06-02T04:47:10.751Z,12.03
2018-06-02T04:49:38.933Z,12.23
2018-06-02T04:52:07.134Z,11.17
2018-06-02T04:54:35.410Z,11.20
2018-06-02T04:57:03.665Z,10.40
2018-06-02T04:59:31.914Z,10.70
2018-06-02T05:02:00.173Z,10.57
2018-06-02T05:04:28.518Z,9.20
2018-06-02T05:06:56.658Z,9.23
2018-06-02T05:09:25.114Z,10.00
2018-06-02T05:11:54.985Z,8.60
2018-06-02T05:14:23.266Z,9.17
2018-06-02T05:16:51.534Z,9.40
2018-06-02T05:19:20.509Z,8.83
2018-06-02T05:21:48.757Z,8.53
2018-06-02T05:24:17.044Z,8.07
2018-06-02T05:26:45.306Z,8.40
2018-06-02T05:29:13.675Z,7.70
2018-06-02T05:31:41.910Z,7.67
2018-06-02T05:34:10.178Z,7.30
2018-06-02T05:36:39.076Z,8.47
2018-06-02T05:39:07.366Z,8.00
2018-06-02T05:41:35.566Z,7.07
2018-06-02T05:44:03.940Z,8.20
2018-06-02T05:46:32.138Z,8.17
2018-06-02T05:49:00.438Z,8.00
2018-06-02T05:51:28.722Z,8.37
2018-06-02T05:53:57.301Z,7.80
2018-06-02T05:56:25.514Z,9.03
2018-06-02T05:58:53.917Z,7.93
2018-06-02T06:01:22.173Z,7.67
2018-06-02T06:03:51.024Z,9.20
2018-06-02T06:06:19.314Z,8.87
2018-06-02T06:08:47.555Z,8.67
2018-06-02T06:11:16.114Z,9.30
2018-06-02T06:13:44.310Z,8.70
2018-06-02T06:16:12.522Z,9.40
2018-06-02T06:18:40.710Z,9.07
2018-06-02T06:21:08.917Z,9.77
2018-06-02T06:23:37.190Z,10.27
2018-06-02T06:26:05.512Z,9.53
2018-06-02T06:28:33.799Z,9.17
2018-06-02T06:31:02.070Z,9.87
2018-06-02T06:33:30.337Z,9.10
2018-06-02T06:35:58.550Z,9.47
2018-06-02T06:38:26.819Z,8.20
2018-06-02T06:40:55.004Z,9.60
2018-06-02T06:43:23.210Z,8.97
2018-06-02T06:45:51.483Z,9.30
2018-06-02T06:48:19.766Z,9.67
2018-06-02T06:50:47.984Z,9.57
2018-06-02T06:53:16.158Z,9.20
2018-06-02T06:55:44.452Z,9.33
2018-06-02T06:58:12.722Z,8.37
2018-06-02T07:00:41.009Z,8.83
2018-06-02T07:03:09.206Z,8.57
2018-06-02T07:05:37.497Z,9.33
2018-06-02T07:08:05.683Z,10.23
2018-06-02T07:10:33.859Z,10.20
2018-06-02T07:13:02.072Z,10.50
2018-06-02T07:15:30.250Z,9.57
2018-06-02T07:17:58.462Z,8.70
2018-06-02T07:20:27.183Z,9.63
2018-06-02T07:22:55.370Z,10.00
2018-06-02T07:25:23.553Z,9.80
2018-06-02T07:27:51.745Z,8.93
2018-06-02T07:30:19.931Z,8.80
2018-06-02T07:32:48.118Z,9.13
2018-06-02T07:35:16.354Z,9.00
2018-06-02T07:37:44.622Z,8.67
2018-06-02T07:40:12.794Z,8.20
2018-06-02T07:42:40.983Z,8.63
2018-06-02T07:45:09.162Z,8.30
2018-06-02T07:47:37.349Z,7.47
2018-06-02T07:50:05.577Z,8.13
2018-06-02T07:52:33.729Z,9.70
2018-06-02T07:55:01.951Z,8.30
2018-06-02T07:57:30.163Z,7.93
2018-06-02T07:59:58.341Z,7.50
2018-06-02T08:02:26.516Z,8.40
2018-06-02T08:04:54.798Z,7.80
2018-06-02T08:07:22.965Z,7.57
2018-06-02T08:09:51.142Z,8.00
2018-06-02T08:12:19.342Z,7.27
2018-06-02T08:14:47.513Z,7.30
2018-06-02T08:17:15.689Z,7.27
2018-06-02T08:19:43.874Z,7.73
2018-06-02T08:22:12.058Z,7.27
2018-06-02T08:24:40.247Z,8.20
2018-06-02T08:27:08.447Z,7.73
2018-06-02T08:29:36.654Z,8.27
2018-06-02T08:32:04.833Z,7.80
2018-06-02T08:34:33.031Z,8.87
2018-06-02T08:37:01.264Z,8.90
2018-06-02T08:39:29.435Z,8.77
2018-06-02T08:41:57.698Z,8.83
2018-06-02T08:44:25.971Z,8.30
2018-06-02T08:46:54.157Z,8.23
2018-06-02T08:49:22.362Z,8.60
2018-06-02T08:51:50.547Z,8.30
2018-06-02T08:54:18.758Z,7.77
2018-06-02T08:56:46.936Z,8.13
2018-06-02T08:59:15.182Z,8.10
2018-06-02T09:01:43.357Z,7.97
2018-06-02T09:04:11.545Z,8.50
2018-06-02T09:06:39.722Z,7.83
2018-06-02T09:09:07.907Z,7.10
2018-06-02T09:11:36.110Z,7.50
2018-06-02T09:14:04.318Z,7.77
2018-06-02T09:16:32.499Z,9.60
2018-06-02T09:19:00.687Z,7.33
2018-06-02T09:21:28.875Z,7.67
2018-06-02T09:23:57.064Z,7.83
2018-06-02T09:26:25.261Z,7.70
2018-06-02T09:28:53.449Z,7.80
2018-06-02T09:31:21.646Z,7.83
2018-06-02T09:33:49.839Z,8.10
2018-06-02T09:36:18.091Z,9.20
2018-06-02T09:38:46.261Z,7.97
2018-06-02T09:41:14.450Z,7.50
2018-06-02T09:43:42.641Z,7.00
2018-06-02T09:46:10.846Z,7.07
2018-06-02T09:48:39.033Z,6.67
2018-06-02T09:51:07.270Z,6.03
2018-06-02T09:53:35.542Z,6.93
2018-06-02T09:56:03.751Z,6.77
2018-06-02T09:58:31.921Z,6.30
2018-06-02T10:01:00.230Z,7.67
2018-06-02T10:03:28.422Z,6.63
2018-06-02T10:05:56.608Z,8.40
2018-06-02T10:08:24.782Z,6.63
2018-06-02T10:10:53.026Z,6.70
2018-06-02T10:13:21.205Z,6.23
2018-06-02T10:15:49.394Z,6.20
2018-06-02T10:18:17.596Z,7.60
2018-06-02T10:20:45.769Z,12.07
2018-06-02T10:23:13.952Z,6.07
2018-06-02T10:25:42.142Z,6.30
2018-06-02T10:28:10.317Z,7.10
2018-06-02T10:30:38.495Z,6.57
2018-06-02T10:33:06.685Z,6.30
2018-06-02T10:35:34.923Z,6.40
2018-06-02T10:38:03.033Z,6.60
2018-06-02T10:40:31.221Z,7.00
2018-06-02T10:42:59.419Z,6.73
2018-06-02T10:45:27.610Z,6.23
2018-06-02T10:47:55.803Z,6.70
2018-06-02T10:50:23.990Z,7.00
2018-06-02T10:52:52.223Z,6.47
2018-06-02T10:55:20.410Z,6.20
2018-06-02T10:57:48.613Z,7.50
2018-06-02T11:00:16.791Z,7.20
2018-06-02T11:02:44.991Z,7.40
2018-06-02T11:05:13.243Z,7.00
2018-06-02T11:07:41.478Z,7.17
2018-06-02T11:10:09.678Z,7.17
2018-06-02T11:12:37.849Z,7.37
2018-06-02T11:15:06.038Z,7.30
2018-06-02T11:17:34.242Z,8.07
2018-06-02T11:20:02.433Z,6.53
2018-06-02T11:22:30.689Z,6.03
2018-06-02T11:24:58.887Z,6.00
2018-06-02T11:27:27.070Z,6.57
2018-06-02T11:29:55.266Z,6.30
2018-06-02T11:32:23.461Z,5.83
2018-06-02T11:34:51.634Z,5.90
2018-06-02T11:37:19.809Z,6.10
2018-06-02T11:39:48.007Z,6.00
2018-06-02T11:42:16.186Z,6.87
2018-06-02T11:44:44.370Z,5.83
2018-06-02T11:47:12.594Z,6.17
2018-06-02T11:49:40.761Z,6.70
2018-06-02T11:52:08.979Z,6.00
2018-06-02T11:54:37.170Z,6.00
2018-06-02T11:57:05.376Z,6.93
2018-06-02T11:59:33.558Z,5.90
2018-06-02T12:02:01.746Z,5.83
2018-06-02T12:04:29.930Z,6.00
2018-06-02T12:06:58.180Z,6.23
2018-06-02T12:09:26.341Z,6.07
2018-06-02T12:11:54.530Z,5.43
2018-06-02T12:14:22.709Z,5.83
2018-06-02T12:16:50.926Z,5.70
2018-06-02T12:19:19.094Z,6.43
2018-06-02T12:21:47.284Z,6.47
2018-06-02T12:24:15.470Z,6.00
2018-06-02T12:26:43.646Z,6.30
2018-06-02T12:29:11.841Z,6.03
2018-06-02T12:31:40.042Z,5.40
2018-06-02T12:34:08.214Z,5.70
2018-06-02T12:36:36.393Z,6.10
2018-06-02T12:39:05.665Z,5.73
2018-06-02T12:41:33.850Z,6.13
2018-06-02T12:44:02.031Z,5.30
2018-06-02T12:46:30.225Z,5.60
2018-06-02T12:48:58.422Z,7.07
2018-06-02T12:51:26.622Z,6.03
2018-06-02T12:53:54.818Z,6.00
2018-06-02T12:56:23.005Z,6.83
2018-06-02T12:58:51.186Z,6.10
2018-06-02T13:01:19.389Z,6.83
2018-06-02T13:03:47.566Z,6.00
2018-06-02T13:06:15.748Z,6.10
2018-06-02T13:08:43.955Z,6.63
2018-06-02T13:11:12.143Z,5.50
2018-06-02T13:13:40.338Z,5.90
2018-06-02T13:16:08.555Z,5.83
2018-06-02T13:18:36.723Z,6.10
2018-06-02T13:21:04.907Z,6.50
2018-06-02T13:23:33.114Z,6.50
2018-06-02T13:26:01.294Z,6.63
2018-06-02T13:28:29.489Z,6.77
2018-06-02T13:30:57.790Z,6.20
2018-06-02T13:33:26.018Z,6.20
2018-06-02T13:35:54.209Z,5.77
2018-06-02T13:38:22.406Z,6.23
2018-06-02T13:40:50.590Z,5.93
2018-06-02T13:43:18.782Z,6.27
2018-06-02T13:45:46.970Z,6.50
2018-06-02T13:48:15.178Z,6.50
2018-06-02T13:50:43.362Z,6.10
2018-06-02T13:53:11.561Z,5.43
2018-06-02T13:55:39.754Z,5.23
2018-06-02T13:58:07.967Z,5.87
2018-06-02T14:00:36.260Z,6.10
2018-06-02T14:03:04.451Z,6.30
2018-06-02T14:05:32.622Z,6.03
2018-06-02T14:08:00.858Z,5.97
2018-06-02T14:10:29.054Z,7.00
2018-06-02T14:12:57.238Z,6.30
2018-06-02T14:15:25.443Z,6.50
2018-06-02T14:17:53.625Z,6.80
2018-06-02T14:20:21.886Z,7.10
2018-06-02T14:22:50.102Z,8.07
2018-06-02T14:25:18.319Z,7.13
2018-06-02T14:27:46.507Z,6.90
2018-06-02T14:30:14.695Z,7.00
2018-06-02T14:32:42.879Z,7.03
2018-06-02T14:35:11.066Z,6.67
2018-06-02T14:37:39.311Z,7.20
2018-06-02T14:40:07.490Z,6.83
2018-06-02T14:42:35.692Z,6.70
2018-06-02T14:45:03.897Z,7.27
2018-06-02T14:47:32.093Z,7.90
2018-06-02T14:50:00.294Z,6.93
2018-06-02T14:52:28.486Z,7.17
2018-06-02T14:54:56.687Z,8.00
2018-06-02T14:57:24.850Z,7.23
2018-06-02T14:59:53.049Z,6.80
2018-06-02T15:02:21.236Z,7.63
2018-06-02T15:04:49.437Z,7.17
2018-06-02T15:07:17.643Z,6.60
2018-06-02T15:09:45.853Z,7.30
2018-06-02T15:12:14.045Z,7.20
2018-06-02T15:14:42.254Z,6.40
2018-06-02T15:17:10.426Z,7.40
2018-06-02T15:19:38.621Z,7.20
2018-06-02T15:22:06.818Z,6.80
2018-06-02T15:24:35.015Z,7.53
2018-06-02T15:27:03.250Z,7.10
2018-06-02T15:29:31.469Z,6.13
2018-06-02T15:31:59.695Z,6.70
2018-06-02T15:34:27.906Z,6.73
2018-06-02T15:36:56.248Z,7.43
2018-06-02T15:39:24.478Z,7.00
2018-06-02T15:41:52.737Z,6.60
2018-06-02T15:44:21.011Z,6.70
2018-06-02T15:46:49.241Z,7.03
2018-06-02T15:49:17.501Z,7.33
2018-06-02T15:51:45.811Z,8.10
2018-06-02T15:54:14.161Z,6.57
2018-06-02T15:56:42.382Z,6.43
2018-06-02T15:59:10.566Z,7.03
2018-06-02T16:01:38.914Z,6.93
2018-06-02T16:04:07.158Z,6.90
2018-06-02T16:06:35.449Z,7.30
2018-06-02T16:09:04.374Z,6.60
2018-06-02T16:11:32.611Z,7.47
2018-06-02T16:14:00.832Z,6.80
2018-06-02T16:16:29.045Z,7.47
2018-06-02T16:18:57.474Z,7.40
2018-06-02T16:21:26.738Z,7.57
2018-06-02T16:23:55.231Z,7.10
2018-06-02T16:26:23.530Z,7.40
2018-06-02T16:28:51.915Z,7.50
2018-06-02T16:31:58.970Z,6.50
2018-06-02T16:34:27.172Z,7.30
2018-06-02T16:36:55.450Z,7.03
2018-06-02T16:39:23.714Z,7.40
2018-06-02T16:41:51.925Z,7.73
2018-06-02T16:44:20.114Z,7.40
2018-06-02T16:46:48.406Z,8.50
2018-06-02T16:49:16.571Z,8.40
2018-06-02T16:51:44.755Z,9.20
2018-06-02T16:54:12.937Z,9.07
2018-06-02T16:56:41.158Z,8.50
2018-06-02T16:59:09.325Z,8.57
2018-06-02T17:01:37.521Z,9.23
2018-06-02T17:04:05.758Z,10.67
2018-06-02T17:06:33.934Z,9.43
2018-06-02T17:09:02.122Z,8.80
2018-06-02T17:11:30.326Z,9.00
2018-06-02T17:13:58.530Z,10.20
2018-06-02T17:16:26.727Z,9.20
2018-06-02T17:18:54.926Z,10.20
2018-06-02T17:21:23.153Z,8.23
2018-06-02T17:23:51.342Z,8.50
2018-06-02T17:26:19.582Z,10.20
2018-06-02T17:28:47.769Z,9.60
2018-06-02T17:31:16.014Z,8.30
2018-06-02T17:33:44.145Z,8.87
2018-06-02T17:36:12.322Z,9.33
2018-06-02T17:38:40.734Z,9.70
2018-06-02T17:41:08.930Z,9.20
2018-06-02T17:43:37.142Z,8.70
2018-06-02T17:46:05.393Z,8.83
2018-06-02T17:48:33.594Z,9.27
2018-06-02T17:51:01.895Z,9.63
2018-06-02T17:53:30.091Z,8.63
2018-06-02T17:55:58.290Z,9.27
2018-06-02T17:58:26.475Z,9.00
2018-06-02T18:00:54.646Z,9.10
2018-06-02T18:03:22.867Z,8.30
2018-06-02T18:05:51.074Z,8.50
2018-06-02T18:08:19.243Z,8.60
2018-06-02T18:10:47.470Z,8.03
2018-06-02T18:13:15.736Z,8.97
2018-06-02T18:15:44.008Z,10.40
2018-06-02T18:18:12.240Z,9.90
2018-06-02T18:20:40.508Z,9.57
2018-06-02T18:23:08.727Z,9.27
2018-06-02T18:25:36.987Z,11.97
2018-06-02T18:28:05.266Z,10.80
2018-06-02T18:30:33.550Z,9.70
2018-06-02T18:33:01.759Z,8.43
2018-06-02T18:35:30.045Z,9.40
2018-06-02T18:37:58.309Z,9.30
2018-06-02T18:40:26.543Z,9.97
2018-06-02T18:42:55.825Z,9.40
2018-06-02T18:45:24.119Z,10.30
2018-06-02T18:47:52.405Z,8.97
2018-06-02T18:50:20.581Z,9.07
2018-06-02T18:52:48.770Z,9.90
2018-06-02T18:55:17.018Z,9.23
2018-06-02T18:57:45.245Z,10.33
2018-06-02T19:00:13.433Z,9.47
2018-06-02T19:02:41.834Z,9.97
2018-06-02T19:05:10.134Z,14.27
2018-06-02T19:07:38.398Z,10.53
2018-06-02T19:10:06.731Z,10.23
2018-06-02T19:12:34.990Z,12.57
2018-06-02T19:15:03.299Z,12.90
2018-06-02T19:17:31.567Z,11.70
2018-06-02T19:19:59.850Z,11.00
2018-06-02T19:22:28.137Z,11.80
2018-06-02T19:24:56.322Z,9.60
2018-06-02T19:27:24.487Z,11.47
2018-06-02T19:29:52.735Z,10.20
2018-06-02T19:32:21.002Z,10.77
2018-06-02T19:34:49.222Z,11.80
2018-06-02T19:37:17.454Z,11.13
2018-06-02T19:39:45.651Z,11.40
2018-06-02T19:42:13.939Z,10.93
2018-06-02T19:44:42.247Z,10.70
2018-06-02T19:47:10.535Z,11.67
2018-06-02T19:49:38.818Z,11.00
2018-06-02T19:52:07.086Z,16.00
2018-06-02T19:54:35.390Z,11.73
2018-06-02T19:57:03.663Z,10.60
2018-06-02T19:59:31.850Z,11.03
2018-06-02T20:02:00.153Z,12.70
2018-06-02T20:04:28.462Z,13.00
2018-06-02T20:06:56.638Z,11.50
2018-06-02T20:09:24.911Z,11.97
2018-06-02T20:11:53.118Z,13.07
2018-06-02T20:14:21.378Z,12.37
2018-06-02T20:16:49.714Z,11.40
2018-06-02T20:19:17.957Z,12.27
2018-06-02T20:21:46.156Z,11.93
2018-06-02T20:24:14.438Z,12.20
2018-06-02T20:26:42.718Z,12.73
2018-06-02T20:29:10.967Z,12.13
2018-06-02T20:31:39.254Z,12.47
2018-06-02T20:34:07.508Z,13.10
2018-06-02T20:36:35.774Z,12.17
2018-06-02T20:39:04.390Z,12.80
2018-06-02T20:41:32.663Z,13.47
2018-06-02T20:44:00.992Z,12.33
2018-06-02T20:46:29.271Z,14.57
2018-06-02T20:48:57.450Z,12.70
2018-06-02T20:51:25.717Z,12.73
2018-06-02T20:53:53.915Z,12.97
2018-06-02T20:56:22.194Z,13.13
2018-06-02T20:58:50.470Z,13.07
2018-06-02T21:01:18.670Z,12.27
2018-06-02T21:03:46.991Z,11.90
2018-06-02T21:06:15.267Z,14.10
2018-06-02T21:08:43.569Z,12.37
2018-06-02T21:11:11.870Z,11.00
2018-06-02T21:13:40.139Z,12.33
2018-06-02T21:16:08.410Z,11.40
2018-06-02T21:18:36.734Z,11.80
2018-06-02T21:21:04.998Z,10.03
2018-06-02T21:23:33.302Z,11.40
2018-06-02T21:26:01.554Z,12.20
2018-06-02T21:28:30.016Z,12.10
2018-06-02T21:30:58.248Z,12.33
2018-06-02T21:33:26.604Z,11.90
2018-06-02T21:35:54.874Z,12.27
2018-06-02T21:38:23.154Z,12.97
2018-06-02T21:40:51.386Z,12.00
2018-06-02T21:43:19.573Z,11.90
2018-06-02T21:45:47.962Z,12.03
2018-06-02T21:48:16.149Z,13.43
2018-06-02T21:50:44.374Z,12.70
2018-06-02T21:53:12.722Z,11.17
2018-06-02T21:55:40.980Z,13.63
2018-06-02T21:58:09.240Z,12.70
2018-06-02T22:00:37.522Z,12.83
2018-06-02T22:03:05.903Z,12.37
2018-06-02T22:05:34.174Z,12.67
2018-06-02T22:08:02.498Z,12.93
2018-06-02T22:10:30.750Z,11.90
2018-06-02T22:12:59.221Z,12.97
2018-06-02T22:15:27.510Z,13.70
2018-06-02T22:17:55.859Z,11.20
2018-06-02T22:20:24.054Z,11.67
2018-06-02T22:22:52.377Z,11.67
2018-06-02T22:25:20.577Z,12.83
2018-06-02T22:27:48.787Z,12.90
2018-06-02T22:30:17.091Z,12.40
2018-06-02T22:32:45.347Z,11.87
2018-06-02T22:35:13.549Z,12.03
2018-06-02T22:37:41.838Z,13.10
2018-06-02T22:40:10.117Z,11.67
2018-06-02T22:42:38.426Z,12.70
2018-06-02T22:45:06.730Z,12.10
2018-06-02T22:47:35.349Z,11.47
2018-06-02T22:50:03.617Z,11.07
2018-06-02T22:52:31.906Z,12.90
2018-06-02T22:55:00.194Z,11.50
2018-06-02T22:57:28.496Z,11.70
2018-06-02T22:59:56.900Z,13.60
2018-06-02T23:02:25.158Z,12.37
2018-06-02T23:04:53.483Z,13.40
2018-06-02T23:07:21.784Z,13.67
2018-06-02T23:09:50.071Z,11.90
2018-06-02T23:12:18.273Z,12.37
2018-06-02T23:14:46.482Z,13.20
2018-06-02T23:17:14.750Z,12.33
2018-06-02T23:19:42.936Z,12.10
2018-06-02T23:22:48.709Z,12.80
2018-06-02T23:25:17.003Z,12.63
2018-06-02T23:27:45.390Z,13.80
2018-06-02T23:30:13.590Z,11.63
2018-06-02T23:32:41.867Z,13.60
2018-06-02T23:35:10.162Z,11.70
2018-06-02T23:37:38.526Z,11.37
2018-06-02T23:40:06.766Z,11.43
2018-06-02T23:42:35.054Z,12.00
2018-06-02T23:45:03.419Z,11.73
2018-06-02T23:47:31.610Z,12.93
2018-06-02T23:49:59.941Z,12.83
2018-06-02T23:52:28.218Z,12.83
2018-06-02T23:54:56.489Z,11.90
2018-06-02T23:57:24.789Z,12.20
2018-06-02T23:59:53.078Z,11.60
